Time;durP1;ratioP1;P1;durP2;ratioP2;P2;SDS_P1;SDS_P2;PMS_P1;PMS_P2;Temp;Humidity;BMP_temperature;BMP_pressure;BME280_temperature;BME280_humidity;BME280_pressure;Samples;Min_cycle;Max_cycle;Signal;HPM_P1;HPM_P2
2021/04/15 00:01:29;;;;;;;3.65;1.40;;;16.10;54.00;;;;;;4993879;28;20030;-70
2021/04/15 00:03:55;;;;;;;2.38;1.23;;;16.20;53.90;;;;;;5003088;28;20539;-70
2021/04/15 00:06:27;;;;;;;2.97;1.45;;;16.10;53.80;;;;;;4998546;28;20101;-69
2021/04/15 00:08:54;;;;;;;3.28;1.40;;;16.10;53.90;;;;;;5008284;28;20027;-70
2021/04/15 00:11:23;;;;;;;2.63;1.27;;;16.10;53.90;;;;;;5009828;28;20107;-70
2021/04/15 00:13:52;;;;;;;3.72;1.50;;;16.10;53.90;;;;;;5007124;28;20038;-69
2021/04/15 00:16:18;;;;;;;3.08;1.30;;;16.00;54.10;;;;;;5001386;28;20037;-69
2021/04/15 00:18:45;;;;;;;3.50;1.40;;;16.00;54.30;;;;;;4997585;28;20030;-70
2021/04/15 00:21:12;;;;;;;3.90;1.60;;;16.00;54.40;;;;;;4992892;28;20038;-70
2021/04/15 00:23:37;;;;;;;3.50;1.70;;;16.00;54.20;;;;;;4993509;28;20037;-70
2021/04/15 00:26:05;;;;;;;3.30;1.50;;;16.00;54.10;;;;;;5008313;28;20030;-70
2021/04/15 00:28:31;;;;;;;3.33;1.40;;;15.90;54.10;;;;;;5019864;28;20486;-70
2021/04/15 00:30:57;;;;;;;2.20;1.35;;;15.90;54.10;;;;;;5009463;28;20081;-69
2021/04/15 00:33:22;;;;;;;2.58;1.35;;;16.00;54.00;;;;;;4991104;28;20037;-69
2021/04/15 00:35:49;;;;;;;3.72;1.23;;;15.90;54.10;;;;;;5001747;28;20042;-70
2021/04/15 00:38:17;;;;;;;3.67;1.35;;;15.90;54.30;;;;;;4992277;28;20046;-70
2021/04/15 00:40:45;;;;;;;4.15;1.67;;;15.80;54.30;;;;;;5011926;28;20030;-70
2021/04/15 00:43:11;;;;;;;3.72;1.50;;;15.90;54.30;;;;;;5010876;28;20041;-70
2021/04/15 00:45:41;;;;;;;3.25;1.30;;;15.90;54.30;;;;;;5008455;28;20102;-70
2021/04/15 00:48:34;;;;;;;2.75;1.38;;;15.80;54.40;;;;;;5010286;28;20506;-70
2021/04/15 00:51:08;;;;;;;3.60;1.50;;;15.80;54.40;;;;;;4998319;28;20064;-70
2021/04/15 00:53:55;;;;;;;2.47;1.30;;;15.80;54.30;;;;;;4993308;28;20030;-70
2021/04/15 00:56:21;;;;;;;2.25;1.30;;;15.80;54.40;;;;;;5006839;28;20026;-70
2021/04/15 00:58:48;;;;;;;2.97;1.50;;;15.80;54.30;;;;;;5011615;28;20028;-71
2021/04/15 01:01:15;;;;;;;2.47;1.30;;;15.80;54.40;;;;;;5008296;28;20484;-70
2021/04/15 01:03:40;;;;;;;2.28;1.35;;;15.70;54.40;;;;;;5004026;28;20122;-70
2021/04/15 01:06:07;;;;;;;3.33;1.40;;;15.70;54.40;;;;;;4992226;28;20105;-71
2021/04/15 01:08:33;;;;;;;3.85;1.70;;;15.70;54.40;;;;;;4997532;28;20380;-70
2021/04/15 01:11:20;;;;;;;3.08;1.45;;;15.60;54.40;;;;;;5010183;28;20032;-70
2021/04/15 01:14:02;;;;;;;3.90;1.40;;;15.70;54.40;;;;;;5004470;28;20032;-70
2021/04/15 01:16:42;;;;;;;2.25;1.42;;;15.70;54.40;;;;;;5004564;28;20498;-70
2021/04/15 01:19:19;;;;;;;2.55;1.38;;;15.70;54.30;;;;;;5010609;28;20034;-70
2021/04/15 01:22:09;;;;;;;3.30;1.58;;;15.70;54.40;;;;;;4998848;28;20106;-71
2021/04/15 01:25:16;;;;;;;4.18;1.50;;;15.70;54.40;;;;;;4991774;28;20039;-70
2021/04/15 01:27:47;;;;;;;3.47;1.50;;;15.70;54.40;;;;;;4991905;28;20089;-69
2021/04/15 01:30:24;;;;;;;3.17;1.42;;;15.70;54.30;;;;;;5003535;28;20026;-70
2021/04/15 01:32:54;;;;;;;3.53;1.40;;;15.60;54.30;;;;;;5000546;28;20038;-70
2021/04/15 01:35:35;;;;;;;3.20;1.42;;;15.60;54.40;;;;;;5009506;28;20033;-70
2021/04/15 01:38:24;;;;;;;3.85;1.63;;;15.60;54.20;;;;;;5011048;28;20018;-70
2021/04/15 01:40:58;;;;;;;3.65;1.58;;;15.60;54.40;;;;;;5007216;28;20019;-69
2021/04/15 01:43:41;;;;;;;9.00;1.70;;;15.60;54.40;;;;;;5004877;28;20030;-70
2021/04/15 01:46:08;;;;;;;2.55;1.48;;;15.60;54.40;;;;;;4995693;28;20092;-69
2021/04/15 01:48:40;;;;;;;3.25;1.40;;;15.60;54.40;;;;;;5006720;28;20482;-69
2021/04/15 01:51:16;;;;;;;2.30;1.27;;;15.60;54.50;;;;;;4990920;28;20034;-70
2021/04/15 01:53:45;;;;;;;2.85;1.58;;;15.60;54.50;;;;;;4991765;28;20547;-71
2021/04/15 01:56:17;;;;;;;3.20;1.40;;;15.60;54.50;;;;;;5000831;28;20040;-70
2021/04/15 01:59:06;;;;;;;4.07;1.75;;;15.50;54.60;;;;;;5004886;28;20060;-70
2021/04/15 02:01:35;;;;;;;2.75;1.48;;;15.40;54.50;;;;;;5001235;28;20113;-70
2021/04/15 02:04:06;;;;;;;3.78;1.35;;;15.50;54.60;;;;;;5011116;28;20383;-71
2021/04/15 02:06:35;;;;;;;3.20;1.30;;;15.50;54.60;;;;;;5010884;28;20026;-71
2021/04/15 02:09:06;;;;;;;3.70;1.38;;;15.50;54.40;;;;;;5007993;28;20544;-70
2021/04/15 02:11:40;;;;;;;;;;;15.50;55.00;;;;;;4992360;28;20034;-69
2021/04/15 02:14:08;;;;;;;3.03;1.48;;;15.40;54.50;;;;;;4989972;28;20299;-71
2021/04/15 02:16:38;;;;;;;3.65;1.70;;;15.50;54.50;;;;;;4995048;28;20034;-70
2021/04/15 02:19:17;;;;;;;3.13;1.50;;;15.50;54.50;;;;;;5005874;28;20142;-70
2021/04/15 02:21:53;;;;;;;3.60;1.50;;;15.40;54.50;;;;;;5010259;28;20522;-70
2021/04/15 02:24:34;;;;;;;3.60;1.40;;;15.40;54.80;;;;;;5008325;28;20049;-71
2021/04/15 02:27:20;;;;;;;2.90;1.40;;;15.40;54.80;;;;;;5007282;28;20508;-70
2021/04/15 02:29:54;;;;;;;3.40;1.50;;;15.30;54.70;;;;;;5002333;28;20081;-70
2021/04/15 02:32:29;;;;;;;2.28;1.20;;;15.30;54.70;;;;;;5013840;28;20054;-71
2021/04/15 02:35:03;;;;;;;3.45;1.70;;;15.30;54.80;;;;;;5014343;28;20026;-71
2021/04/15 02:37:44;;;;;;;2.70;1.40;;;15.30;55.30;;;;;;4999949;28;20026;-71
2021/04/15 02:40:19;;;;;;;2.70;1.33;;;15.30;54.80;;;;;;4993534;28;20038;-70
2021/04/15 02:42:45;;;;;;;3.72;1.63;;;15.30;54.80;;;;;;5007651;28;20030;-69
2021/04/15 02:45:31;;;;;;;2.33;1.38;;;15.30;54.70;;;;;;5012101;28;20423;-70
2021/04/15 02:48:06;;;;;;;3.80;1.60;;;15.30;54.80;;;;;;5001099;28;20034;-70
2021/04/15 02:50:34;;;;;;;3.92;1.55;;;15.30;54.70;;;;;;4994642;28;20436;-70
2021/04/15 02:53:14;;;;;;;5.10;1.80;;;15.30;54.70;;;;;;4994347;28;20114;-70
2021/04/15 02:55:46;;;;;;;2.25;1.33;;;15.20;54.70;;;;;;4994625;28;20109;-71
2021/04/15 02:58:34;;;;;;;3.33;1.48;;;15.20;54.80;;;;;;4993308;28;20054;-70
2021/04/15 03:01:02;;;;;;;2.38;1.50;;;15.20;54.80;;;;;;4998430;28;20027;-70
2021/04/15 03:03:33;;;;;;;2.97;1.40;;;15.20;54.80;;;;;;4992701;28;20026;-69
2021/04/15 03:06:09;;;;;;;3.30;1.60;;;15.20;54.80;;;;;;5000998;28;20026;-70
2021/04/15 03:08:37;;;;;;;3.45;1.50;;;15.20;55.00;;;;;;4994378;28;20023;-69
2021/04/15 03:11:10;;;;;;;2.72;1.50;;;15.10;55.00;;;;;;5001501;28;20513;-70
2021/04/15 03:13:43;;;;;;;3.50;1.30;;;15.10;54.90;;;;;;5012052;28;20088;-70
2021/04/15 03:16:09;;;;;;;2.88;1.52;;;15.20;55.00;;;;;;5013586;28;20039;-70
2021/04/15 03:18:50;;;;;;;3.40;1.42;;;15.10;54.80;;;;;;5011111;28;20042;-70
2021/04/15 03:21:26;;;;;;;3.90;1.70;;;15.20;54.90;;;;;;4993250;28;20061;-70
2021/04/15 03:23:59;;;;;;;4.63;2.00;;;15.10;54.90;;;;;;5005475;28;20037;-70
2021/04/15 03:26:46;;;;;;;3.97;1.83;;;15.10;54.90;;;;;;5004791;28;20439;-69
2021/04/15 03:29:42;;;;;;;2.25;1.40;;;15.10;54.80;;;;;;5055487;23;20542;-62
2021/04/15 03:32:23;;;;;;;4.35;1.90;;;15.10;54.70;;;;;;4998090;28;20506;-62
2021/04/15 03:34:51;;;;;;;4.10;1.77;;;15.10;54.80;;;;;;4999529;28;20033;-63
2021/04/15 03:37:41;;;;;;;4.32;1.73;;;15.00;54.80;;;;;;5012495;28;20018;-62
2021/04/15 03:40:10;;;;;;;3.47;1.50;;;15.10;54.80;;;;;;5011736;28;20140;-63
2021/04/15 03:42:47;;;;;;;5.00;1.60;;;15.10;54.80;;;;;;5010937;28;20037;-62
2021/04/15 03:45:20;;;;;;;2.97;1.70;;;15.10;54.90;;;;;;5012865;28;20037;-63
2021/04/15 03:47:55;;;;;;;4.45;1.67;;;15.10;55.00;;;;;;5011155;28;20022;-63
2021/04/15 03:50:26;;;;;;;3.65;1.70;;;15.10;55.00;;;;;;5004113;28;20085;-63
2021/04/15 03:53:04;;;;;;;3.00;1.42;;;15.10;55.00;;;;;;4994121;28;20026;-61
2021/04/15 03:55:37;;;;;;;4.45;1.67;;;15.10;54.90;;;;;;5011619;28;20376;-64
2021/04/15 03:58:23;;;;;;;5.00;1.77;;;15.10;55.00;;;;;;5002562;28;20034;-63
2021/04/15 04:00:52;;;;;;;5.05;1.88;;;15.10;55.00;;;;;;4998084;28;20113;-63
2021/04/15 04:03:24;;;;;;;4.63;1.60;;;15.00;54.90;;;;;;5004357;28;20038;-63
2021/04/15 04:05:57;;;;;;;3.72;1.60;;;15.00;54.90;;;;;;5009715;28;20033;-64
2021/04/15 04:08:36;;;;;;;4.13;1.95;;;15.10;54.90;;;;;;5012149;28;20029;-62
2021/04/15 04:11:03;;;;;;;3.30;1.63;;;15.00;55.00;;;;;;5010710;28;20068;-62
2021/04/15 04:13:33;;;;;;;4.15;1.83;;;15.00;55.10;;;;;;5006767;28;20426;-63
2021/04/15 04:16:25;;;;;;;4.07;1.77;;;15.00;54.90;;;;;;5012744;28;20056;-63
2021/04/15 04:19:00;;;;;;;3.28;1.70;;;15.00;54.80;;;;;;4994091;28;20042;-63
2021/04/15 04:21:29;;;;;;;4.70;1.80;;;15.00;54.70;;;;;;5002260;28;20022;-62
2021/04/15 04:24:14;;;;;;;3.75;1.50;;;15.00;54.80;;;;;;5010890;28;20030;-63
2021/04/15 04:26:58;;;;;;;2.55;1.50;;;15.00;54.80;;;;;;5010834;28;20030;-63
2021/04/15 04:29:47;;;;;;;3.88;1.88;;;15.00;54.70;;;;;;5001324;28;20030;-62
2021/04/15 04:32:16;;;;;;;5.80;1.67;;;15.00;54.80;;;;;;5004911;28;20423;-63
2021/04/15 04:34:44;;;;;;;4.20;1.73;;;15.00;54.80;;;;;;5009739;28;20091;-62
2021/04/15 04:37:13;;;;;;;5.00;1.80;;;15.00;54.90;;;;;;5010724;28;20594;-63
2021/04/15 04:39:40;;;;;;;4.32;1.83;;;14.90;55.10;;;;;;5011587;28;20415;-63
2021/04/15 04:42:34;;;;;;;3.53;1.80;;;15.00;55.00;;;;;;4999434;28;20101;-63
2021/04/15 04:45:00;;;;;;;4.32;1.70;;;15.00;55.10;;;;;;5012022;28;20013;-62
2021/04/15 04:47:50;;;;;;;6.60;2.20;;;15.00;55.00;;;;;;5010650;28;20026;-63
2021/04/15 04:50:27;;;;;;;3.22;1.80;;;15.00;54.90;;;;;;5010362;28;20117;-63
2021/04/15 04:53:05;;;;;;;4.32;1.88;;;15.00;54.80;;;;;;5011689;28;20030;-62
2021/04/15 04:56:18;;;;;;;3.95;1.67;;;15.00;54.80;;;;;;5012022;28;20030;-63
2021/04/15 04:58:53;;;;;;;6.88;1.80;;;15.00;54.70;;;;;;5010240;28;20109;-62
2021/04/15 05:01:19;;;;;;;4.68;1.80;;;15.00;54.50;;;;;;5011320;28;20034;-63
2021/04/15 05:03:45;;;;;;;5.72;1.83;;;15.10;54.40;;;;;;5007754;28;20080;-63
2021/04/15 05:06:22;;;;;;;5.03;2.00;;;15.10;54.80;;;;;;5012037;28;20033;-63
2021/04/15 05:09:21;;;;;;;5.60;1.90;;;15.10;55.20;;;;;;5011905;28;20022;-62
2021/04/15 05:11:49;;;;;;;5.25;2.00;;;15.30;55.10;;;;;;5011957;28;20038;-62
2021/04/15 05:14:18;;;;;;;5.93;2.17;;;15.20;55.30;;;;;;5010155;28;20032;-64
2021/04/15 05:16:46;;;;;;;9.23;2.10;;;15.30;54.90;;;;;;4992184;28;20034;-62
2021/04/15 05:19:12;;;;;;;13.63;2.50;;;15.30;55.40;;;;;;5005654;28;20471;-63
2021/04/15 05:21:38;;;;;;;10.07;2.42;;;15.40;54.50;;;;;;5011205;28;20100;-63
2021/04/15 05:24:13;;;;;;;9.30;1.90;;;15.40;54.50;;;;;;5011352;28;20025;-63
2021/04/15 05:26:41;;;;;;;14.93;2.95;;;15.50;54.80;;;;;;5009008;28;20034;-62
2021/04/15 05:29:12;;;;;;;9.93;2.50;;;15.50;54.50;;;;;;5010845;28;20492;-63
2021/04/15 05:31:41;;;;;;;10.52;2.47;;;15.40;54.10;;;;;;5011169;28;20030;-63
2021/04/15 05:34:18;;;;;;;9.18;2.50;;;15.40;53.90;;;;;;5009494;28;20044;-63
2021/04/15 05:36:44;;;;;;;8.13;2.20;;;15.40;54.00;;;;;;5011464;28;20030;-63
2021/04/15 05:39:14;;;;;;;8.00;2.00;;;15.60;53.80;;;;;;5010200;28;20068;-67
2021/04/15 05:41:57;;;;;;;8.02;2.50;;;15.80;53.90;;;;;;5011620;28;20026;-64
2021/04/15 05:44:36;;;;;;;12.63;2.40;;;15.90;53.40;;;;;;5009676;28;20033;-66
2021/04/15 05:47:09;;;;;;;11.95;2.95;;;16.20;53.20;;;;;;5006094;28;20403;-63
2021/04/15 05:49:43;;;;;;;9.05;2.47;;;16.30;52.20;;;;;;5005074;28;20014;-62
2021/04/15 05:52:36;;;;;;;14.05;2.97;;;16.50;51.80;;;;;;5008882;28;20022;-63
2021/04/15 05:55:15;;;;;;;6.22;2.00;;;16.60;51.40;;;;;;4990720;28;20025;-62
2021/04/15 05:57:46;;;;;;;9.23;2.10;;;16.80;50.70;;;;;;5000363;28;20116;-63
2021/04/15 06:00:20;;;;;;;8.02;2.38;;;16.90;50.40;;;;;;4997192;28;20023;-63
2021/04/15 06:03:03;;;;;;;7.40;2.30;;;17.00;50.00;;;;;;4995782;28;20037;-63
2021/04/15 06:05:51;;;;;;;9.68;2.80;;;17.10;49.60;;;;;;4996474;28;20026;-62
2021/04/15 06:08:17;;;;;;;5.88;2.30;;;17.20;49.20;;;;;;4996623;28;20033;-62
2021/04/15 06:10:44;;;;;;;5.18;1.88;;;17.40;48.80;;;;;;5002657;28;20031;-63
2021/04/15 06:13:22;;;;;;;7.05;2.25;;;17.50;48.40;;;;;;4998892;28;20103;-63
2021/04/15 06:15:53;;;;;;;6.20;2.17;;;17.60;47.90;;;;;;4993779;28;20411;-62
2021/04/15 06:18:37;;;;;;;7.88;2.30;;;17.80;47.50;;;;;;5003925;28;20181;-64
2021/04/15 06:21:35;;;;;;;6.53;2.15;;;18.00;47.20;;;;;;4988076;28;20126;-64
2021/04/15 06:24:08;;;;;;;5.35;2.05;;;18.20;46.70;;;;;;4987862;28;20041;-63
2021/04/15 06:26:51;;;;;;;5.72;2.33;;;18.40;46.50;;;;;;4994940;28;20084;-63
2021/04/15 06:29:31;;;;;;;5.68;2.00;;;18.50;45.80;;;;;;4991446;28;20501;-62
2021/04/15 06:32:04;;;;;;;6.53;2.65;;;18.80;45.40;;;;;;4996116;28;20030;-62
2021/04/15 06:34:29;;;;;;;5.70;2.10;;;18.90;45.20;;;;;;5006215;28;20062;-62
2021/04/15 06:36:58;;;;;;;4.85;2.00;;;19.10;44.80;;;;;;5003318;28;20065;-62
2021/04/15 06:39:24;;;;;;;5.78;2.15;;;19.20;44.30;;;;;;4987603;28;20519;-63
2021/04/15 06:41:55;;;;;;;5.18;2.20;;;19.40;44.10;;;;;;5001276;28;20029;-63
2021/04/15 06:44:45;;;;;;;5.47;2.20;;;19.50;43.70;;;;;;5002594;28;20138;-63
2021/04/15 06:47:21;;;;;;;5.60;2.22;;;19.60;43.40;;;;;;4998612;28;20034;-64
2021/04/15 06:50:10;;;;;;;4.70;2.40;;;19.70;43.20;;;;;;5004189;28;20022;-64
2021/04/15 06:52:44;;;;;;;6.93;2.30;;;19.90;42.80;;;;;;5005740;28;20111;-63
2021/04/15 06:55:31;;;;;;;7.65;2.45;;;19.90;42.50;;;;;;4997471;28;20031;-64
2021/04/15 06:58:14;;;;;;;9.52;2.50;;;20.00;42.30;;;;;;4995164;28;20076;-64
2021/04/15 07:01:05;;;;;;;4.72;2.35;;;19.90;42.20;;;;;;5003423;28;20034;-64
2021/04/15 07:03:41;;;;;;;4.82;2.45;;;19.90;42.10;;;;;;4999635;28;20029;-64
2021/04/15 07:06:20;;;;;;;5.65;2.60;;;20.10;41.80;;;;;;4991272;28;20498;-62
2021/04/15 07:09:15;;;;;;;6.97;2.85;;;20.30;42.00;;;;;;4989915;28;20022;-63
2021/04/15 07:12:01;;;;;;;12.95;2.97;;;20.50;41.10;;;;;;4989958;28;20207;-64
2021/04/15 07:15:11;;;;;;;14.50;3.20;;;20.70;41.10;;;;;;4999406;28;20029;-64
2021/04/15 07:17:55;;;;;;;9.13;2.60;;;20.80;40.90;;;;;;5007534;28;20033;-64
2021/04/15 07:20:39;;;;;;;12.75;2.50;;;20.90;40.70;;;;;;5007421;28;20030;-62
2021/04/15 07:23:50;;;;;;;8.25;2.50;;;20.80;41.10;;;;;;5005552;28;20036;-64
2021/04/15 07:26:48;;;;;;;5.15;2.50;;;21.00;40.60;;;;;;4966550;28;20108;-64
2021/04/15 07:29:47;;;;;;;9.68;2.20;;;20.90;40.50;;;;;;4985708;28;20507;-64
2021/04/15 07:32:39;;;;;;;5.45;2.40;;;20.90;40.20;;;;;;4987971;28;20539;-64
2021/04/15 07:35:19;;;;;;;5.05;2.47;;;21.20;40.20;;;;;;4987684;28;20049;-63
2021/04/15 07:38:13;;;;;;;7.05;2.20;;;20.80;40.30;;;;;;4987542;28;20046;-64
2021/04/15 07:40:51;;;;;;;6.25;2.40;;;21.10;40.10;;;;;;4986117;28;20500;-64
2021/04/15 07:43:48;;;;;;;9.45;2.65;;;21.40;39.70;;;;;;4995178;28;20120;-63
2021/04/15 07:46:39;;;;;;;8.25;2.53;;;21.30;39.70;;;;;;4998255;28;20174;-63
2021/04/15 07:49:54;;;;;;;4.97;2.30;;;21.60;39.20;;;;;;4954400;28;20030;-62
2021/04/15 07:52:35;;;;;;;13.38;2.25;;;21.70;39.50;;;;;;4953237;28;20039;-63
2021/04/15 07:55:19;;;;;;;7.70;2.28;;;22.00;38.70;;;;;;4985808;28;20186;-70
2021/04/15 07:58:09;;;;;;;7.20;2.70;;;22.10;38.30;;;;;;4987750;28;20032;-63
2021/04/15 08:01:13;;;;;;;5.72;2.72;;;22.00;38.50;;;;;;5003531;28;20869;-63
2021/04/15 08:04:14;;;;;;;7.90;2.25;;;22.00;38.50;;;;;;4999813;28;20597;-63
2021/04/15 08:06:54;;;;;;;5.93;2.05;;;22.00;38.90;;;;;;5003694;28;20030;-63
2021/04/15 08:10:04;;;;;;;7.18;2.30;;;22.40;38.30;;;;;;5004804;28;20030;-63
2021/04/15 08:13:06;;;;;;;5.30;2.00;;;22.60;37.90;;;;;;4971594;28;20049;-63
2021/04/15 08:15:38;;;;;;;7.57;2.20;;;22.90;37.30;;;;;;4971146;28;20080;-63
2021/04/15 08:18:25;;;;;;;6.35;1.95;;;22.70;37.20;;;;;;5005286;28;20038;-63
2021/04/15 08:21:11;;;;;;;5.22;1.88;;;23.10;37.20;;;;;;5004634;28;20033;-63
2021/04/15 08:24:04;;;;;;;5.68;1.92;;;23.20;36.70;;;;;;5001363;28;20045;-63
2021/04/15 08:27:08;;;;;;;5.53;1.92;;;22.60;36.60;;;;;;4995444;28;20033;-63
2021/04/15 08:30:05;;;;;;;6.32;2.25;;;21.80;38.40;;;;;;5004037;28;20037;-63
2021/04/15 08:32:39;;;;;;;4.10;1.90;;;22.30;38.60;;;;;;5006181;28;20510;-63
2021/04/15 08:35:32;;;;;;;3.67;1.85;;;22.10;38.20;;;;;;5005532;28;20476;-63
2021/04/15 08:38:32;;;;;;;3.35;1.50;;;22.60;37.90;;;;;;5006250;28;20051;-62
2021/04/15 08:41:13;;;;;;;5.38;1.80;;;23.40;36.70;;;;;;5004683;28;20036;-63
2021/04/15 08:43:51;;;;;;;3.85;1.65;;;23.60;36.10;;;;;;5005592;28;20022;-63
2021/04/15 08:46:32;;;;;;;4.95;1.65;;;23.80;35.50;;;;;;5006026;28;20018;-63
2021/04/15 08:49:25;;;;;;;5.95;1.90;;;23.00;36.50;;;;;;4999441;28;20040;-63
2021/04/15 08:52:24;;;;;;;4.68;1.83;;;23.70;36.10;;;;;;4997394;28;20034;-63
2021/04/15 08:55:08;;;;;;;4.25;1.75;;;24.10;35.40;;;;;;4996601;28;20025;-63
2021/04/15 08:58:12;;;;;;;6.68;2.08;;;24.30;35.00;;;;;;5000216;28;20473;-63
2021/04/15 09:00:46;;;;;;;4.60;1.60;;;24.40;34.80;;;;;;4999124;28;20105;-63
2021/04/15 09:03:33;;;;;;;4.13;1.60;;;24.40;34.80;;;;;;4992388;28;20030;-62
2021/04/15 09:06:19;;;;;;;4.07;1.65;;;24.30;34.70;;;;;;5005799;28;20030;-63
2021/04/15 09:08:56;;;;;;;3.28;1.63;;;23.40;35.20;;;;;;5005024;28;20022;-63
2021/04/15 09:11:54;;;;;;;3.20;1.60;;;23.40;36.20;;;;;;4993126;28;20033;-63
2021/04/15 09:15:06;;;;;;;5.80;1.63;;;23.90;35.50;;;;;;5005341;28;20919;-63
2021/04/15 09:17:36;;;;;;;3.83;1.90;;;24.20;34.90;;;;;;4975315;28;20042;-64
2021/04/15 09:20:04;;;;;;;4.72;1.80;;;24.30;34.70;;;;;;5001409;28;20040;-63
2021/04/15 09:22:44;;;;;;;3.95;1.52;;;24.50;34.60;;;;;;5002737;28;20030;-63
2021/04/15 09:25:27;;;;;;;3.17;1.52;;;24.60;34.20;;;;;;4999826;28;20034;-63
2021/04/15 09:28:09;;;;;;;3.33;1.55;;;24.10;34.50;;;;;;4993357;28;20037;-63
2021/04/15 09:30:55;;;;;;;3.63;1.60;;;23.50;36.00;;;;;;4985000;28;20038;-64
2021/04/15 09:33:54;;;;;;;4.28;1.50;;;23.50;35.20;;;;;;5001024;28;20033;-63
2021/04/15 09:36:48;;;;;;;5.20;1.65;;;22.00;37.30;;;;;;5006404;28;20030;-64
2021/04/15 09:39:39;;;;;;;3.13;1.50;;;21.90;37.70;;;;;;5008749;28;20058;-63
2021/04/15 09:42:41;;;;;;;5.47;1.67;;;22.80;37.40;;;;;;4994948;28;20030;-63
2021/04/15 09:45:16;;;;;;;5.68;1.40;;;23.10;36.20;;;;;;5020651;28;20060;-63
2021/04/15 09:48:06;;;;;;;3.20;1.40;;;23.00;36.90;;;;;;4999351;28;20072;-62
2021/04/15 09:50:56;;;;;;;4.70;1.60;;;23.50;35.90;;;;;;4989536;28;20026;-64
2021/04/15 09:53:31;;;;;;;3.95;1.40;;;23.70;35.50;;;;;;4988095;28;20030;-64
2021/04/15 09:56:04;;;;;;;2.30;1.27;;;23.80;35.10;;;;;;4991799;28;20026;-62
2021/04/15 09:58:45;;;;;;;3.90;1.35;;;24.00;34.90;;;;;;4989314;28;20057;-63
2021/04/15 10:01:20;;;;;;;3.45;1.48;;;23.40;35.50;;;;;;4988087;28;20508;-63
2021/04/15 10:04:02;;;;;;;3.53;1.50;;;23.30;36.20;;;;;;4988712;28;20038;-63
2021/04/15 10:06:33;;;;;;;2.72;1.17;;;24.10;34.90;;;;;;5004349;28;20109;-63
2021/04/15 10:09:10;;;;;;;4.10;1.60;;;24.00;34.20;;;;;;5007343;28;20018;-64
2021/04/15 10:11:49;;;;;;;4.78;1.58;;;23.50;34.80;;;;;;5005846;28;20030;-63
2021/04/15 10:14:24;;;;;;;3.85;1.55;;;22.00;36.70;;;;;;4998589;28;20034;-64
2021/04/15 10:17:15;;;;;;;3.08;1.50;;;21.10;38.60;;;;;;4987977;28;20575;-63
2021/04/15 10:19:40;;;;;;;;;;;22.40;38.30;;;;;;5003934;28;20034;-63
2021/04/15 10:22:08;;;;;;;3.35;1.63;;;23.70;35.90;;;;;;5005931;28;19916;-63
2021/04/15 10:24:40;;;;;;;2.55;1.48;;;24.40;34.70;;;;;;5006795;28;20048;-63
2021/04/15 10:27:24;;;;;;;;;;;24.90;33.70;;;;;;4998267;28;20695;-63
2021/04/15 10:29:58;;;;;;;4.70;1.33;;;25.20;33.20;;;;;;4991522;28;19918;-63
2021/04/15 10:33:01;;;;;;;3.75;1.40;;;25.50;32.80;;;;;;4993855;28;20100;-62
2021/04/15 10:36:09;;;;;;;2.20;1.20;;;25.70;32.40;;;;;;4989595;28;20029;-63
2021/04/15 10:38:38;;;;;;;3.65;1.50;;;23.10;35.10;;;;;;4959498;28;20049;-63
2021/04/15 10:41:12;;;;;;;3.08;1.30;;;21.90;37.40;;;;;;4999977;28;20503;-62
2021/04/15 10:43:53;;;;;;;3.75;1.25;;;21.10;38.80;;;;;;4996244;28;20022;-63
2021/04/15 10:46:34;;;;;;;;;;;20.60;39.80;;;;;;4987682;28;20031;-64
2021/04/15 10:49:28;;;;;;;4.72;1.63;;;21.20;40.10;;;;;;4986641;28;20213;-63
2021/04/15 10:52:24;;;;;;;2.63;1.30;;;22.20;37.90;;;;;;5002560;28;20411;-62
2021/04/15 10:54:50;;;;;;;2.67;1.20;;;21.30;38.50;;;;;;4992150;28;20065;-62
2021/04/15 10:57:31;;;;;;;5.05;1.40;;;20.60;40.00;;;;;;5007801;28;20029;-64
2021/04/15 11:00:19;;;;;;;5.20;1.38;;;20.10;40.60;;;;;;5006224;28;20038;-63
2021/04/15 11:02:54;;;;;;;4.72;1.40;;;19.70;41.70;;;;;;5005287;28;20412;-64
2021/04/15 11:05:25;;;;;;;3.80;1.30;;;19.90;41.70;;;;;;5007120;28;20037;-62
2021/04/15 11:07:53;;;;;;;3.83;1.40;;;21.20;39.50;;;;;;5007510;28;20392;-62
2021/04/15 11:10:31;;;;;;;3.70;1.50;;;21.90;38.00;;;;;;5007018;28;20036;-63
2021/04/15 11:13:22;;;;;;;2.40;1.17;;;22.20;37.10;;;;;;5007573;28;20045;-63
2021/04/15 11:15:51;;;;;;;5.55;1.25;;;21.40;38.30;;;;;;5006662;28;20046;-63
2021/04/15 11:18:26;;;;;;;2.90;1.20;;;21.40;38.20;;;;;;5005310;28;20029;-62
2021/04/15 11:20:53;;;;;;;2.78;1.20;;;21.40;38.00;;;;;;4992146;28;20653;-63
2021/04/15 11:23:19;;;;;;;2.80;1.25;;;20.60;39.40;;;;;;4986123;28;20042;-63
2021/04/15 11:25:48;;;;;;;5.60;1.73;;;20.20;40.50;;;;;;4986903;28;20914;-63
2021/04/15 11:28:23;;;;;;;6.70;1.52;;;20.30;41.00;;;;;;5002959;28;20114;-63
2021/04/15 11:30:51;;;;;;;6.53;1.70;;;21.20;39.30;;;;;;5006402;28;20068;-62
2021/04/15 11:33:41;;;;;;;6.32;1.30;;;21.30;38.70;;;;;;5006887;28;20037;-63
2021/04/15 11:36:13;;;;;;;5.93;1.45;;;20.40;40.10;;;;;;4999490;28;20553;-63
2021/04/15 11:38:40;;;;;;;5.95;1.42;;;20.00;40.90;;;;;;4996545;28;20536;-62
2021/04/15 11:41:25;;;;;;;7.22;1.52;;;19.70;41.50;;;;;;4987666;28;20030;-63
2021/04/15 11:44:04;;;;;;;5.40;1.48;;;19.40;42.30;;;;;;5018675;28;20046;-62
2021/04/15 11:46:47;;;;;;;4.40;1.10;;;19.20;42.70;;;;;;5004389;28;20033;-63
2021/04/15 11:49:29;;;;;;;7.18;1.50;;;19.20;42.80;;;;;;5002501;28;20053;-63
2021/04/15 11:52:19;;;;;;;10.50;3.00;;;19.30;42.90;;;;;;5000988;28;20023;-63
2021/04/15 11:54:48;;;;;;;;;;;19.60;42.40;;;;;;4996309;28;20034;-62
2021/04/15 11:57:19;;;;;;;21.10;9.65;;;19.50;42.60;;;;;;5002346;28;19913;-62
2021/04/15 11:59:57;;;;;;;26.33;11.98;;;19.40;42.80;;;;;;5000447;28;20080;-63
2021/04/15 12:02:59;;;;;;;26.05;13.07;;;19.20;43.30;;;;;;4992846;28;20034;-63
2021/04/15 12:05:29;;;;;;;31.50;16.10;;;19.10;43.60;;;;;;4959158;28;20328;-66
2021/04/15 12:07:57;;;;;;;30.98;16.50;;;19.10;44.00;;;;;;4995955;28;20025;-66
2021/04/15 12:10:26;;;;;;;29.98;14.50;;;19.00;45.00;;;;;;5003733;28;20027;-66
2021/04/15 12:12:56;;;;;;;30.00;14.90;;;18.90;45.50;;;;;;4999654;28;20061;-66
2021/04/15 12:15:27;;;;;;;27.98;14.65;;;19.00;45.70;;;;;;4999105;28;20057;-66
2021/04/15 12:18:19;;;;;;;24.98;13.88;;;19.20;45.00;;;;;;4992398;28;20038;-65
2021/04/15 12:21:12;;;;;;;23.98;12.55;;;19.40;44.40;;;;;;4986999;28;20030;-65
2021/04/15 12:23:49;;;;;;;22.50;11.93;;;19.50;44.50;;;;;;4988998;28;20042;-65
2021/04/15 12:26:36;;;;;;;23.20;12.20;;;19.40;44.60;;;;;;4997904;28;20030;-65
2021/04/15 12:29:08;;;;;;;22.77;12.10;;;19.10;44.90;;;;;;5000513;28;20062;-66
2021/04/15 12:32:11;;;;;;;23.92;12.07;;;19.00;45.10;;;;;;4991580;28;20029;-65
2021/04/15 12:35:11;;;;;;;19.65;10.52;;;19.00;45.00;;;;;;4992111;28;20030;-65
2021/04/15 12:37:42;;;;;;;26.23;12.10;;;19.00;45.00;;;;;;4996167;28;20030;-63
2021/04/15 12:40:17;;;;;;;19.95;10.75;;;19.10;44.80;;;;;;4992038;28;20061;-63
2021/04/15 12:42:45;;;;;;;20.40;9.68;;;19.10;44.80;;;;;;4990225;28;20030;-62
2021/04/15 12:45:30;;;;;;;21.55;10.00;;;19.10;44.80;;;;;;5001452;28;20057;-66
2021/04/15 12:47:57;;;;;;;21.65;9.85;;;19.20;44.50;;;;;;5002243;28;20507;-65
2021/04/15 12:50:24;;;;;;;18.88;9.05;;;19.20;44.30;;;;;;5003416;28;20040;-66
2021/04/15 12:52:50;;;;;;;17.30;9.10;;;19.00;44.90;;;;;;5000065;28;20026;-67
2021/04/15 12:55:20;;;;;;;18.52;8.63;;;18.90;44.80;;;;;;4997607;28;20511;-64
2021/04/15 12:57:47;;;;;;;16.88;8.40;;;18.90;44.90;;;;;;5003403;28;20048;-64
2021/04/15 13:00:23;;;;;;;19.58;7.63;;;18.90;44.70;;;;;;4990454;28;20034;-62
2021/04/15 13:02:51;;;;;;;17.05;8.13;;;18.80;44.80;;;;;;5001021;28;20037;-63
2021/04/15 13:05:31;;;;;;;15.10;6.63;;;18.90;45.20;;;;;;4993668;28;20448;-64
2021/04/15 13:08:22;;;;;;;15.25;6.95;;;18.80;45.20;;;;;;4994408;28;20565;-63
2021/04/15 13:10:49;;;;;;;14.88;6.75;;;18.80;45.00;;;;;;4982738;28;20507;-64
2021/04/15 13:13:40;;;;;;;12.05;6.50;;;18.90;44.70;;;;;;4990341;28;20042;-70
2021/04/15 13:16:06;;;;;;;;;;;18.90;44.70;;;;;;4993479;28;20116;-69
2021/04/15 13:18:44;;;;;;;15.02;5.35;;;18.80;44.00;;;;;;4994625;28;20470;-63
2021/04/15 13:21:24;;;;;;;13.80;5.47;;;18.80;44.40;;;;;;5003627;28;20058;-63
2021/04/15 13:23:50;;;;;;;12.38;5.68;;;18.70;44.90;;;;;;4989386;28;20030;-63
2021/04/15 13:26:15;;;;;;;13.40;5.40;;;18.70;45.00;;;;;;4990095;28;20033;-63
2021/04/15 13:28:41;;;;;;;13.30;4.95;;;18.60;44.80;;;;;;5008689;28;20019;-63
2021/04/15 13:31:07;;;;;;;12.52;4.97;;;18.60;45.40;;;;;;5010307;28;20105;-63
2021/04/15 13:33:34;;;;;;;13.93;5.65;;;18.60;45.30;;;;;;5010019;28;20068;-63
2021/04/15 13:36:00;;;;;;;12.90;5.70;;;18.60;45.30;;;;;;5011207;28;20022;-63
2021/04/15 13:38:26;;;;;;;15.40;5.80;;;18.50;45.20;;;;;;5010903;28;20029;-63
2021/04/15 13:40:55;;;;;;;12.63;4.95;;;18.60;45.20;;;;;;5011235;28;20105;-63
2021/04/15 13:43:33;;;;;;;10.77;5.22;;;18.60;45.10;;;;;;5009490;28;20030;-63